sensor_id;sensor_type;location;lat;lon;timestamp;pressure;altitude;pressure_sealevel;temperature;humidity
63088;BME280;49173;43.164;27.786;2023-02-17T00:01:50;101328.72;;;2.86;70.98
63088;BME280;49173;43.164;27.786;2023-02-17T00:04:16;101334.03;;;2.89;70.66
63088;BME280;49173;43.164;27.786;2023-02-17T00:06:42;101333.09;;;2.89;70.79
63088;BME280;49173;43.164;27.786;2023-02-17T00:09:08;101323.41;;;2.89;70.06
63088;BME280;49173;43.164;27.786;2023-02-17T00:11:34;101322.50;;;2.89;70.42
63088;BME280;49173;43.164;27.786;2023-02-17T00:14:00;101324.28;;;2.90;70.85
63088;BME280;49173;43.164;27.786;2023-02-17T00:16:27;101323.41;;;2.89;71.05
63088;BME280;49173;43.164;27.786;2023-02-17T00:18:56;101314.56;;;2.90;71.33
63088;BME280;49173;43.164;27.786;2023-02-17T00:21:24;101319.81;;;2.93;70.78
63088;BME280;49173;43.164;27.786;2023-02-17T00:23:51;101311.88;;;2.93;71.45
63088;BME280;49173;43.164;27.786;2023-02-17T00:26:18;101305.66;;;2.94;71.45
63088;BME280;49173;43.164;27.786;2023-02-17T00:28:44;101303.03;;;2.94;71.32
63088;BME280;49173;43.164;27.786;2023-02-17T00:31:14;101300.41;;;2.91;70.44
63088;BME280;49173;43.164;27.786;2023-02-17T00:33:41;101303.94;;;2.89;70.53
63088;BME280;49173;43.164;27.786;2023-02-17T00:36:10;101306.66;;;2.84;70.15
63088;BME280;49173;43.164;27.786;2023-02-17T00:38:37;101296.97;;;2.79;70.22
63088;BME280;49173;43.164;27.786;2023-02-17T00:41:03;101287.28;;;2.74;70.97
63088;BME280;49173;43.164;27.786;2023-02-17T00:43:29;101284.66;;;2.73;71.10
63088;BME280;49173;43.164;27.786;2023-02-17T00:45:54;101287.31;;;2.71;71.55
63088;BME280;49173;43.164;27.786;2023-02-17T00:48:21;101284.63;;;2.76;72.35
63088;BME280;49173;43.164;27.786;2023-02-17T00:50:47;101283.72;;;2.79;72.59
63088;BME280;49173;43.164;27.786;2023-02-17T00:53:13;101273.16;;;2.74;72.15
63088;BME280;49173;43.164;27.786;2023-02-17T00:55:38;101269.59;;;2.78;72.38
63088;BME280;49173;43.164;27.786;2023-02-17T00:58:04;101271.31;;;2.81;72.72
63088;BME280;49173;43.164;27.786;2023-02-17T01:00:30;101272.19;;;2.84;72.41
63088;BME280;49173;43.164;27.786;2023-02-17T01:02:56;101261.56;;;2.87;72.34
63088;BME280;49173;43.164;27.786;2023-02-17T01:05:22;101264.16;;;2.92;72.35
63088;BME280;49173;43.164;27.786;2023-02-17T01:07:48;101260.63;;;2.93;71.51
63088;BME280;49173;43.164;27.786;2023-02-17T01:10:14;101253.59;;;2.90;71.84
63088;BME280;49173;43.164;27.786;2023-02-17T01:12:40;101249.19;;;2.89;71.74
63088;BME280;49173;43.164;27.786;2023-02-17T01:15:08;101254.47;;;2.88;71.54
63088;BME280;49173;43.164;27.786;2023-02-17T01:17:33;101250.06;;;2.87;72.02
63088;BME280;49173;43.164;27.786;2023-02-17T01:19:59;101244.78;;;2.85;72.00
63088;BME280;49173;43.164;27.786;2023-02-17T01:22:25;101242.16;;;2.84;72.07
63088;BME280;49173;43.164;27.786;2023-02-17T01:24:51;101234.22;;;2.81;71.63
63088;BME280;49173;43.164;27.786;2023-02-17T01:27:17;101244.84;;;2.82;72.06
63088;BME280;49173;43.164;27.786;2023-02-17T01:29:44;101236.03;;;2.77;71.70
63088;BME280;49173;43.164;27.786;2023-02-17T01:32:10;101232.53;;;2.72;71.87
63088;BME280;49173;43.164;27.786;2023-02-17T01:34:37;101227.28;;;2.69;71.92
63088;BME280;49173;43.164;27.786;2023-02-17T01:37:03;101229.94;;;2.66;72.28
63088;BME280;49173;43.164;27.786;2023-02-17T01:39:29;101221.97;;;2.66;72.32
63088;BME280;49173;43.164;27.786;2023-02-17T01:41:55;101229.97;;;2.64;72.55
63088;BME280;49173;43.164;27.786;2023-02-17T01:44:23;101221.09;;;2.65;72.23
63088;BME280;49173;43.164;27.786;2023-02-17T01:46:54;101219.38;;;2.63;72.56
63088;BME280;49173;43.164;27.786;2023-02-17T01:49:34;101222.91;;;2.62;72.83
63088;BME280;49173;43.164;27.786;2023-02-17T01:54:36;101221.16;;;2.59;72.15
63088;BME280;49173;43.164;27.786;2023-02-17T01:57:02;101222.94;;;2.57;72.54
63088;BME280;49173;43.164;27.786;2023-02-17T01:59:29;101226.50;;;2.55;72.55
63088;BME280;49173;43.164;27.786;2023-02-17T02:01:58;101221.19;;;2.53;72.78
63088;BME280;49173;43.164;27.786;2023-02-17T02:04:28;101207.06;;;2.53;72.82
63088;BME280;49173;43.164;27.786;2023-02-17T02:06:54;101223.00;;;2.50;72.58
63088;BME280;49173;43.164;27.786;2023-02-17T02:09:24;101214.22;;;2.44;72.99
63088;BME280;49173;43.164;27.786;2023-02-17T02:11:52;101215.09;;;2.45;72.83
63088;BME280;49173;43.164;27.786;2023-02-17T02:14:20;101209.84;;;2.42;72.70
63088;BME280;49173;43.164;27.786;2023-02-17T02:17:04;101201.91;;;2.40;73.11
63088;BME280;49173;43.164;27.786;2023-02-17T02:35:22;101198.53;;;2.20;73.87
63088;BME280;49173;43.164;27.786;2023-02-17T02:38:15;101195.00;;;2.21;74.49
63088;BME280;49173;43.164;27.786;2023-02-17T02:41:05;101204.66;;;2.25;74.42
63088;BME280;49173;43.164;27.786;2023-02-17T02:43:33;101198.53;;;2.20;74.28
63088;BME280;49173;43.164;27.786;2023-02-17T02:45:58;101195.88;;;2.17;74.32
63088;BME280;49173;43.164;27.786;2023-02-17T02:48:25;101194.13;;;2.17;74.48
63088;BME280;49173;43.164;27.786;2023-02-17T02:51:02;101192.38;;;2.16;74.95
63088;BME280;49173;43.164;27.786;2023-02-17T02:56:49;101205.59;;;2.18;74.69
63088;BME280;49173;43.164;27.786;2023-02-17T03:02:25;101206.53;;;2.12;75.00
63088;BME280;49173;43.164;27.786;2023-02-17T03:07:48;101216.25;;;2.12;74.76
63088;BME280;49173;43.164;27.786;2023-02-17T03:10:15;101209.19;;;2.08;74.81
63088;BME280;49173;43.164;27.786;2023-02-17T03:12:42;101204.81;;;2.07;74.99
63088;BME280;49173;43.164;27.786;2023-02-17T03:15:23;101208.31;;;2.04;75.38
63088;BME280;49173;43.164;27.786;2023-02-17T03:17:50;101209.22;;;2.03;75.21
63088;BME280;49173;43.164;27.786;2023-02-17T03:20:17;101209.22;;;2.02;75.18
63088;BME280;49173;43.164;27.786;2023-02-17T03:22:45;101209.25;;;2.00;75.14
63088;BME280;49173;43.164;27.786;2023-02-17T03:25:12;101210.16;;;1.98;75.32
63088;BME280;49173;43.164;27.786;2023-02-17T03:27:39;101213.69;;;1.98;75.21
63088;BME280;49173;43.164;27.786;2023-02-17T03:30:06;101210.16;;;1.98;75.42
63088;BME280;49173;43.164;27.786;2023-02-17T03:32:33;101210.16;;;1.96;75.17
63088;BME280;49173;43.164;27.786;2023-02-17T03:34:59;101209.31;;;1.92;75.57
63088;BME280;49173;43.164;27.786;2023-02-17T03:37:25;101205.75;;;1.93;75.49
63088;BME280;49173;43.164;27.786;2023-02-17T03:39:51;101216.34;;;1.95;75.14
63088;BME280;49173;43.164;27.786;2023-02-17T03:42:17;101214.56;;;1.96;74.94
63088;BME280;49173;43.164;27.786;2023-02-17T03:44:43;101215.47;;;1.95;75.10
63088;BME280;49173;43.164;27.786;2023-02-17T03:47:09;101217.25;;;1.91;74.79
63088;BME280;49173;43.164;27.786;2023-02-17T03:49:36;101210.19;;;1.90;74.92
63088;BME280;49173;43.164;27.786;2023-02-17T03:52:02;101208.47;;;1.86;75.06
63088;BME280;49173;43.164;27.786;2023-02-17T03:54:28;101209.38;;;1.83;75.20
63088;BME280;49173;43.164;27.786;2023-02-17T03:56:54;101199.63;;;1.85;75.27
63088;BME280;49173;43.164;27.786;2023-02-17T03:59:20;101201.41;;;1.85;75.01
63088;BME280;49173;43.164;27.786;2023-02-17T04:01:46;101206.69;;;1.86;75.20
63088;BME280;49173;43.164;27.786;2023-02-17T04:04:12;101203.16;;;1.86;75.24
63088;BME280;49173;43.164;27.786;2023-02-17T04:06:38;101189.06;;;1.85;75.37
63088;BME280;49173;43.164;27.786;2023-02-17T04:09:05;101188.19;;;1.85;75.72
63088;BME280;49173;43.164;27.786;2023-02-17T04:11:31;101190.81;;;1.86;75.62
63088;BME280;49173;43.164;27.786;2023-02-17T04:13:57;101185.50;;;1.88;75.95
63088;BME280;49173;43.164;27.786;2023-02-17T04:16:22;101187.25;;;1.89;76.06
63088;BME280;49173;43.164;27.786;2023-02-17T04:18:48;101186.38;;;1.88;75.99
63088;BME280;49173;43.164;27.786;2023-02-17T04:21:14;101194.31;;;1.88;76.43
63088;BME280;49173;43.164;27.786;2023-02-17T04:23:40;101193.41;;;1.92;76.46
63088;BME280;49173;43.164;27.786;2023-02-17T04:26:07;101174.88;;;1.94;76.00
63088;BME280;49173;43.164;27.786;2023-02-17T04:28:33;101188.97;;;1.96;76.09
63088;BME280;49173;43.164;27.786;2023-02-17T04:30:59;101181.91;;;1.97;76.11
63088;BME280;49173;43.164;27.786;2023-02-17T04:33:25;101183.69;;;1.98;76.08
63088;BME280;49173;43.164;27.786;2023-02-17T04:35:51;101184.56;;;1.97;75.74
63088;BME280;49173;43.164;27.786;2023-02-17T04:38:27;101189.88;;;1.98;75.57
63088;BME280;49173;43.164;27.786;2023-02-17T04:40:54;101187.22;;;1.98;75.85
63088;BME280;49173;43.164;27.786;2023-02-17T04:43:22;101186.34;;;1.98;75.84
63088;BME280;49173;43.164;27.786;2023-02-17T04:45:48;101194.28;;;1.98;75.57
63088;BME280;49173;43.164;27.786;2023-02-17T04:48:14;101195.13;;;1.97;75.95
63088;BME280;49173;43.164;27.786;2023-02-17T04:50:40;101194.25;;;1.99;75.23
63088;BME280;49173;43.164;27.786;2023-02-17T04:53:06;101194.25;;;1.99;75.66
63088;BME280;49173;43.164;27.786;2023-02-17T04:55:32;101194.25;;;1.96;75.64
63088;BME280;49173;43.164;27.786;2023-02-17T04:57:58;101194.28;;;1.98;75.37
63088;BME280;49173;43.164;27.786;2023-02-17T05:00:26;101199.53;;;2.01;75.02
63088;BME280;49173;43.164;27.786;2023-02-17T05:02:51;101203.09;;;1.98;75.27
63088;BME280;49173;43.164;27.786;2023-02-17T05:05:17;101199.56;;;1.98;75.36
63088;BME280;49173;43.164;27.786;2023-02-17T05:07:44;101204.84;;;1.96;75.31
63088;BME280;49173;43.164;27.786;2023-02-17T05:10:12;101205.75;;;1.93;75.61
63088;BME280;49173;43.164;27.786;2023-02-17T05:12:38;101202.25;;;1.91;75.53
63088;BME280;49173;43.164;27.786;2023-02-17T05:15:05;101211.09;;;1.87;75.84
63088;BME280;49173;43.164;27.786;2023-02-17T05:17:32;101205.78;;;1.87;76.01
63088;BME280;49173;43.164;27.786;2023-02-17T05:19:58;101207.59;;;1.85;75.52
63088;BME280;49173;43.164;27.786;2023-02-17T05:22:24;101213.72;;;1.89;75.52
63088;BME280;49173;43.164;27.786;2023-02-17T05:24:51;101218.13;;;1.91;75.54
63088;BME280;49173;43.164;27.786;2023-02-17T05:27:17;101215.47;;;1.98;75.14
63088;BME280;49173;43.164;27.786;2023-02-17T05:29:43;101223.31;;;2.08;75.24
63088;BME280;49173;43.164;27.786;2023-02-17T05:32:09;101229.41;;;2.21;74.70
63088;BME280;49173;43.164;27.786;2023-02-17T05:34:35;101235.53;;;2.28;74.44
63088;BME280;49173;43.164;27.786;2023-02-17T05:37:01;101231.09;;;2.31;73.89
63088;BME280;49173;43.164;27.786;2023-02-17T05:39:28;101236.31;;;2.39;74.39
63088;BME280;49173;43.164;27.786;2023-02-17T05:41:54;101227.47;;;2.47;74.02
63088;BME280;49173;43.164;27.786;2023-02-17T05:44:20;101229.09;;;2.59;74.12
63088;BME280;49173;43.164;27.786;2023-02-17T05:46:46;101239.63;;;2.70;73.32
63088;BME280;49173;43.164;27.786;2023-02-17T05:49:12;101236.03;;;2.74;72.66
63088;BME280;49173;43.164;27.786;2023-02-17T05:51:38;101239.56;;;2.76;72.55
63088;BME280;49173;43.164;27.786;2023-02-17T05:54:04;101248.28;;;2.89;72.41
63088;BME280;49173;43.164;27.786;2023-02-17T05:56:30;101248.13;;;3.06;72.47
63088;BME280;49173;43.164;27.786;2023-02-17T05:58:56;101252.25;;;3.31;72.31
63088;BME280;49173;43.164;27.786;2023-02-17T06:01:22;101259.56;;;3.86;71.87
63088;BME280;49173;43.164;27.786;2023-02-17T06:03:48;101265.53;;;4.63;69.28
63088;BME280;49173;43.164;27.786;2023-02-17T06:06:14;101261.50;;;4.92;66.38
63088;BME280;49173;43.164;27.786;2023-02-17T06:08:41;101253.63;;;4.86;65.62
63088;BME280;49173;43.164;27.786;2023-02-17T06:11:06;101253.00;;;4.70;65.78
63088;BME280;49173;43.164;27.786;2023-02-17T06:13:32;101254.94;;;4.60;66.67
63088;BME280;49173;43.164;27.786;2023-02-17T06:15:58;101243.50;;;4.55;66.88
63088;BME280;49173;43.164;27.786;2023-02-17T06:18:24;101247.13;;;4.51;66.56
63088;BME280;49173;43.164;27.786;2023-02-17T06:20:50;101247.13;;;4.51;66.89
63088;BME280;49173;43.164;27.786;2023-02-17T06:23:15;101239.16;;;4.50;66.98
63088;BME280;49173;43.164;27.786;2023-02-17T06:25:41;101236.56;;;4.47;67.57
63088;BME280;49173;43.164;27.786;2023-02-17T06:28:07;101242.03;;;4.36;67.65
63088;BME280;49173;43.164;27.786;2023-02-17T06:30:33;101242.13;;;4.30;68.13
63088;BME280;49173;43.164;27.786;2023-02-17T06:32:59;101235.97;;;4.28;68.51
63088;BME280;49173;43.164;27.786;2023-02-17T06:35:27;101235.97;;;4.28;68.55
63088;BME280;49173;43.164;27.786;2023-02-17T06:37:54;101229.66;;;4.35;69.33
63088;BME280;49173;43.164;27.786;2023-02-17T06:40:20;101231.19;;;4.51;68.77
63088;BME280;49173;43.164;27.786;2023-02-17T06:42:46;101231.78;;;4.67;68.80
63088;BME280;49173;43.164;27.786;2023-02-17T06:45:13;101229.81;;;4.78;69.08
63088;BME280;49173;43.164;27.786;2023-02-17T06:47:39;101238.50;;;4.89;69.25
63088;BME280;49173;43.164;27.786;2023-02-17T06:50:05;101237.41;;;5.00;69.75
63088;BME280;49173;43.164;27.786;2023-02-17T06:52:31;101241.69;;;5.10;69.86
63088;BME280;49173;43.164;27.786;2023-02-17T06:54:57;101249.56;;;5.14;70.19
63088;BME280;49173;43.164;27.786;2023-02-17T06:57:23;101252.97;;;5.22;70.19
63088;BME280;49173;43.164;27.786;2023-02-17T06:59:49;101249.28;;;5.30;70.08
63088;BME280;49173;43.164;27.786;2023-02-17T07:02:14;101254.47;;;5.37;70.11
63088;BME280;49173;43.164;27.786;2023-02-17T07:04:41;101252.59;;;5.41;68.54
63088;BME280;49173;43.164;27.786;2023-02-17T07:07:07;101256.13;;;5.43;67.48
63088;BME280;49173;43.164;27.786;2023-02-17T07:09:34;101249.00;;;5.45;67.63
63088;BME280;49173;43.164;27.786;2023-02-17T07:12:00;101259.53;;;5.51;68.12
63088;BME280;49173;43.164;27.786;2023-02-17T07:14:26;101257.63;;;5.56;67.83
63088;BME280;49173;43.164;27.786;2023-02-17T07:16:52;101250.31;;;5.67;67.83
63088;BME280;49173;43.164;27.786;2023-02-17T07:19:18;101253.63;;;5.78;68.36
63088;BME280;49173;43.164;27.786;2023-02-17T07:21:44;101243.50;;;5.96;68.71
63088;BME280;49173;43.164;27.786;2023-02-17T07:24:10;101241.47;;;6.09;68.77
63088;BME280;49173;43.164;27.786;2023-02-17T07:26:38;101246.63;;;6.16;69.56
63088;BME280;49173;43.164;27.786;2023-02-17T07:29:05;101250.03;;;6.23;68.82
63088;BME280;49173;43.164;27.786;2023-02-17T07:31:31;101253.38;;;6.31;67.90
63088;BME280;49173;43.164;27.786;2023-02-17T07:33:57;101250.53;;;6.39;68.00
63088;BME280;49173;43.164;27.786;2023-02-17T07:36:24;101241.53;;;6.44;66.92
63088;BME280;49173;43.164;27.786;2023-02-17T07:38:50;101241.25;;;6.55;65.98
63088;BME280;49173;43.164;27.786;2023-02-17T07:41:18;101250.84;;;6.64;65.29
63088;BME280;49173;43.164;27.786;2023-02-17T07:43:45;101246.22;;;6.70;65.09
63088;BME280;49173;43.164;27.786;2023-02-17T07:46:12;101254.09;;;6.75;64.90
63088;BME280;49173;43.164;27.786;2023-02-17T07:48:38;101258.56;;;6.74;64.16
63088;BME280;49173;43.164;27.786;2023-02-17T07:51:08;101261.19;;;6.76;64.04
63088;BME280;49173;43.164;27.786;2023-02-17T07:53:35;101264.81;;;6.73;64.27
63088;BME280;49173;43.164;27.786;2023-02-17T07:56:02;101271.66;;;6.83;63.74
63088;BME280;49173;43.164;27.786;2023-02-17T07:58:30;101269.69;;;6.92;63.88
63088;BME280;49173;43.164;27.786;2023-02-17T08:00:57;101265.97;;;6.97;61.80
63088;BME280;49173;43.164;27.786;2023-02-17T08:03:23;101262.28;;;7.03;62.05
63088;BME280;49173;43.164;27.786;2023-02-17T08:05:48;101258.47;;;7.13;61.87
63088;BME280;49173;43.164;27.786;2023-02-17T08:08:16;101253.91;;;7.16;61.54
63088;BME280;49173;43.164;27.786;2023-02-17T08:11:01;101259.19;;;7.20;61.07
63088;BME280;49173;43.164;27.786;2023-02-17T08:13:45;101263.50;;;7.24;60.80
63088;BME280;49173;43.164;27.786;2023-02-17T08:16:11;101262.56;;;7.25;60.73
63088;BME280;49173;43.164;27.786;2023-02-17T08:18:36;101268.78;;;7.27;60.76
63088;BME280;49173;43.164;27.786;2023-02-17T08:21:02;101268.59;;;7.33;60.92
63088;BME280;49173;43.164;27.786;2023-02-17T08:23:30;101271.13;;;7.37;59.63
63088;BME280;49173;43.164;27.786;2023-02-17T08:25:57;101271.91;;;7.42;59.24
63088;BME280;49173;43.164;27.786;2023-02-17T08:28:24;101267.47;;;7.41;58.72
63088;BME280;49173;43.164;27.786;2023-02-17T08:30:52;101272.59;;;7.49;59.56
63088;BME280;49173;43.164;27.786;2023-02-17T08:33:22;101276.72;;;7.61;58.74
63088;BME280;49173;43.164;27.786;2023-02-17T08:35:50;101280.91;;;7.71;58.80
63088;BME280;49173;43.164;27.786;2023-02-17T08:38:16;101277.00;;;7.83;57.78
63088;BME280;49173;43.164;27.786;2023-02-17T08:40:46;101281.19;;;7.91;57.34
63088;BME280;49173;43.164;27.786;2023-02-17T08:43:16;101276.59;;;7.96;57.06
63088;BME280;49173;43.164;27.786;2023-02-17T08:45:46;101282.53;;;8.06;56.82
63088;BME280;49173;43.164;27.786;2023-02-17T08:48:13;101282.31;;;8.14;56.31
63088;BME280;49173;43.164;27.786;2023-02-17T08:50:39;101275.97;;;8.18;57.09
63088;BME280;49173;43.164;27.786;2023-02-17T08:53:06;101280.81;;;8.33;57.01
63088;BME280;49173;43.164;27.786;2023-02-17T08:55:34;101276.19;;;8.40;56.42
63088;BME280;49173;43.164;27.786;2023-02-17T08:58:03;101274.03;;;8.51;56.42
63088;BME280;49173;43.164;27.786;2023-02-17T09:00:30;101280.88;;;8.60;56.74
63088;BME280;49173;43.164;27.786;2023-02-17T09:02:56;101270.78;;;8.69;56.26
63088;BME280;49173;43.164;27.786;2023-02-17T09:05:24;101266.25;;;8.71;55.69
63088;BME280;49173;43.164;27.786;2023-02-17T09:07:59;101268.88;;;8.73;55.60
63088;BME280;49173;43.164;27.786;2023-02-17T09:10:26;101268.72;;;8.77;55.67
63088;BME280;49173;43.164;27.786;2023-02-17T09:12:52;101270.31;;;8.83;55.71
63088;BME280;49173;43.164;27.786;2023-02-17T09:15:19;101266.56;;;8.89;55.71
63088;BME280;49173;43.164;27.786;2023-02-17T09:17:48;101265.53;;;8.93;55.97
63088;BME280;49173;43.164;27.786;2023-02-17T09:20:15;101265.28;;;9.00;55.97
63088;BME280;49173;43.164;27.786;2023-02-17T09:22:41;101249.94;;;9.05;55.32
63088;BME280;49173;43.164;27.786;2023-02-17T09:25:10;101248.06;;;9.07;55.56
63088;BME280;49173;43.164;27.786;2023-02-17T09:27:36;101253.41;;;9.07;55.30
63088;BME280;49173;43.164;27.786;2023-02-17T09:30:04;101247.84;;;9.14;55.54
63088;BME280;49173;43.164;27.786;2023-02-17T09:32:33;101253.13;;;9.17;55.21
63088;BME280;49173;43.164;27.786;2023-02-17T09:35:02;101254.88;;;9.18;54.68
63088;BME280;49173;43.164;27.786;2023-02-17T09:37:30;101244.91;;;9.21;55.08
63088;BME280;49173;43.164;27.786;2023-02-17T09:39:57;101247.22;;;9.32;54.89
63088;BME280;49173;43.164;27.786;2023-02-17T09:42:27;101243.47;;;9.36;54.48
63088;BME280;49173;43.164;27.786;2023-02-17T09:45:09;101237.19;;;9.37;54.42
63088;BME280;49173;43.164;27.786;2023-02-17T09:47:42;101233.47;;;9.41;53.90
63088;BME280;49173;43.164;27.786;2023-02-17T09:50:15;101238.91;;;9.40;54.08
63088;BME280;49173;43.164;27.786;2023-02-17T09:55:28;101225.00;;;9.53;54.29
63088;BME280;49173;43.164;27.786;2023-02-17T09:58:08;101224.94;;;9.55;53.42
63088;BME280;49173;43.164;27.786;2023-02-17T10:00:48;101217.78;;;9.55;54.04
63088;BME280;49173;43.164;27.786;2023-02-17T10:03:28;101230.25;;;9.56;54.03
63088;BME280;49173;43.164;27.786;2023-02-17T10:08:57;101223.56;;;9.68;53.45
63088;BME280;49173;43.164;27.786;2023-02-17T10:17:31;101209.34;;;9.89;53.30
63088;BME280;49173;43.164;27.786;2023-02-17T10:22:32;101202.34;;;10.07;52.74
63088;BME280;49173;43.164;27.786;2023-02-17T10:25:17;101204.56;;;10.19;51.95
63088;BME280;49173;43.164;27.786;2023-02-17T10:30:42;101187.22;;;10.30;50.99
63088;BME280;49173;43.164;27.786;2023-02-17T10:33:34;101182.34;;;10.39;51.04
63088;BME280;49173;43.164;27.786;2023-02-17T10:36:24;101174.84;;;10.48;50.31
63088;BME280;49173;43.164;27.786;2023-02-17T10:39:03;101177.88;;;10.60;50.01
63088;BME280;49173;43.164;27.786;2023-02-17T10:41:35;101163.41;;;10.64;50.08
63088;BME280;49173;43.164;27.786;2023-02-17T10:44:11;101169.31;;;10.72;49.96
63088;BME280;49173;43.164;27.786;2023-02-17T10:46:41;101168.13;;;10.80;49.69
63088;BME280;49173;43.164;27.786;2023-02-17T10:49:38;101165.22;;;10.84;49.77
63088;BME280;49173;43.164;27.786;2023-02-17T10:52:19;101167.56;;;10.92;49.42
63088;BME280;49173;43.164;27.786;2023-02-17T10:55:16;101166.34;;;10.99;49.31
63088;BME280;49173;43.164;27.786;2023-02-17T10:57:48;101158.72;;;11.10;48.70
63088;BME280;49173;43.164;27.786;2023-02-17T11:00:18;101161.41;;;11.10;48.38
63088;BME280;49173;43.164;27.786;2023-02-17T11:02:47;101149.94;;;11.07;48.09
63088;BME280;49173;43.164;27.786;2023-02-17T11:05:24;101157.09;;;11.06;48.32
63088;BME280;49173;43.164;27.786;2023-02-17T11:11:15;101147.69;;;10.96;48.63
63088;BME280;49173;43.164;27.786;2023-02-17T11:13:56;101152.34;;;10.92;49.23
63088;BME280;49173;43.164;27.786;2023-02-17T11:16:31;101156.78;;;10.93;49.00
63088;BME280;49173;43.164;27.786;2023-02-17T11:19:03;101146.03;;;10.93;49.03
63088;BME280;49173;43.164;27.786;2023-02-17T11:21:32;101145.09;;;10.94;48.47
63088;BME280;49173;43.164;27.786;2023-02-17T11:24:02;101151.25;;;10.96;48.08
63088;BME280;49173;43.164;27.786;2023-02-17T11:26:32;101143.09;;;10.99;48.14
63088;BME280;49173;43.164;27.786;2023-02-17T11:29:20;101129.31;;;11.07;48.09
63088;BME280;49173;43.164;27.786;2023-02-17T11:32:12;101135.28;;;11.14;47.69
63088;BME280;49173;43.164;27.786;2023-02-17T11:34:44;101132.25;;;11.21;47.62
63088;BME280;49173;43.164;27.786;2023-02-17T11:37:23;101125.78;;;11.25;47.20
63088;BME280;49173;43.164;27.786;2023-02-17T11:39:53;101124.28;;;11.39;46.89
63088;BME280;49173;43.164;27.786;2023-02-17T11:44:50;101121.97;;;11.50;46.45
63088;BME280;49173;43.164;27.786;2023-02-17T11:53:28;101107.94;;;11.62;46.01
63088;BME280;49173;43.164;27.786;2023-02-17T11:56:12;101105.97;;;11.66;45.75
63088;BME280;49173;43.164;27.786;2023-02-17T12:13:04;101097.81;;;12.05;44.09
63088;BME280;49173;43.164;27.786;2023-02-17T12:23:55;101091.22;;;12.29;43.47
63088;BME280;49173;43.164;27.786;2023-02-17T12:29:29;101085.84;;;12.29;43.37
63088;BME280;49173;43.164;27.786;2023-02-17T12:34:58;101082.66;;;12.38;43.24
63088;BME280;49173;43.164;27.786;2023-02-17T12:37:37;101075.25;;;12.44;42.95
63088;BME280;49173;43.164;27.786;2023-02-17T12:40:19;101084.34;;;12.41;43.31
63088;BME280;49173;43.164;27.786;2023-02-17T12:42:56;101080.94;;;12.55;43.71
63088;BME280;49173;43.164;27.786;2023-02-17T12:45:38;101078.72;;;12.63;43.25
63088;BME280;49173;43.164;27.786;2023-02-17T12:50:59;101079.47;;;12.82;42.44
63088;BME280;49173;43.164;27.786;2023-02-17T12:53:40;101080.75;;;12.92;42.61
63088;BME280;49173;43.164;27.786;2023-02-17T13:01:58;101076.28;;;13.09;43.25
63088;BME280;49173;43.164;27.786;2023-02-17T13:04:28;101077.59;;;13.17;43.38
63088;BME280;49173;43.164;27.786;2023-02-17T13:07:12;101070.16;;;13.23;43.53
63088;BME280;49173;43.164;27.786;2023-02-17T13:09:44;101067.94;;;13.13;43.06
63088;BME280;49173;43.164;27.786;2023-02-17T13:12:17;101068.63;;;13.17;42.82
63088;BME280;49173;43.164;27.786;2023-02-17T13:14:47;101067.16;;;13.11;43.24
63088;BME280;49173;43.164;27.786;2023-02-17T13:17:36;101060.72;;;13.14;42.89
63088;BME280;49173;43.164;27.786;2023-02-17T13:22:41;101065.66;;;13.23;42.55
63088;BME280;49173;43.164;27.786;2023-02-17T13:25:25;101059.28;;;13.24;42.40
63088;BME280;49173;43.164;27.786;2023-02-17T13:27:58;101066.09;;;13.31;42.67
63088;BME280;49173;43.164;27.786;2023-02-17T13:30:43;101057.94;;;13.49;42.63
63088;BME280;49173;43.164;27.786;2023-02-17T13:35:46;101053.25;;;13.52;42.36
63088;BME280;49173;43.164;27.786;2023-02-17T13:38:13;101055.25;;;13.49;42.01
63088;BME280;49173;43.164;27.786;2023-02-17T13:40:51;101060.91;;;13.44;42.05
63088;BME280;49173;43.164;27.786;2023-02-17T13:43:20;101061.00;;;13.42;42.46
63088;BME280;49173;43.164;27.786;2023-02-17T13:46:03;101067.97;;;13.46;42.60
63088;BME280;49173;43.164;27.786;2023-02-17T13:48:33;101059.88;;;13.46;42.74
63088;BME280;49173;43.164;27.786;2023-02-17T13:51:20;101048.47;;;13.41;42.35
63088;BME280;49173;43.164;27.786;2023-02-17T13:53:50;101051.84;;;13.45;42.46
63088;BME280;49173;43.164;27.786;2023-02-17T13:56:30;101056.38;;;13.44;42.56
63088;BME280;49173;43.164;27.786;2023-02-17T13:59:26;101054.00;;;13.38;42.60
63088;BME280;49173;43.164;27.786;2023-02-17T14:01:53;101052.59;;;13.31;43.01
63088;BME280;49173;43.164;27.786;2023-02-17T14:04:29;101057.78;;;13.18;42.92
63088;BME280;49173;43.164;27.786;2023-02-17T14:07:02;101063.75;;;13.08;43.09
63088;BME280;49173;43.164;27.786;2023-02-17T14:09:34;101060.84;;;12.95;43.46
63088;BME280;49173;43.164;27.786;2023-02-17T14:12:04;101065.00;;;12.85;43.82
63088;BME280;49173;43.164;27.786;2023-02-17T14:14:38;101062.72;;;12.77;44.02
63088;BME280;49173;43.164;27.786;2023-02-17T14:17:29;101063.13;;;12.70;44.44
63088;BME280;49173;43.164;27.786;2023-02-17T14:20:02;101067.63;;;12.69;44.45
63088;BME280;49173;43.164;27.786;2023-02-17T14:22:35;101067.97;;;12.63;44.95
63088;BME280;49173;43.164;27.786;2023-02-17T14:25:06;101067.41;;;12.56;45.13
63088;BME280;49173;43.164;27.786;2023-02-17T14:27:44;101078.41;;;12.52;45.46
63088;BME280;49173;43.164;27.786;2023-02-17T14:30:27;101069.84;;;12.44;46.11
63088;BME280;49173;43.164;27.786;2023-02-17T14:33:21;101084.50;;;12.38;45.82
63088;BME280;49173;43.164;27.786;2023-02-17T14:36:08;101085.44;;;12.37;46.07
63088;BME280;49173;43.164;27.786;2023-02-17T14:38:42;101082.66;;;12.38;46.12
63088;BME280;49173;43.164;27.786;2023-02-17T14:41:08;101082.94;;;12.34;46.28